Time;durP1;ratioP1;P1;durP2;ratioP2;P2;SDS_P1;SDS_P2;PMS_P1;PMS_P2;Temp;Humidity;BMP_temperature;BMP_pressure;BME280_temperature;BME280_humidity;BME280_pressure;Samples;Min_cycle;Max_cycle;Signal;HPM_P1;HPM_P2
2023/10/31 00:00:15;;;;;;;7.28;2.03;;;;;;;12.43;94.93;99579.59;4935356;28;20056;-65
2023/10/31 00:02:43;;;;;;;8.63;2.15;;;;;;;12.31;95.81;99578.84;4934076;29;20642;-64
2023/10/31 00:05:10;;;;;;;5.78;1.70;;;;;;;12.41;95.52;99583.88;4933782;29;20056;-64
2023/10/31 00:07:37;;;;;;;12.65;1.90;;;;;;;12.32;95.38;99577.69;4934832;29;20055;-65
2023/10/31 00:10:05;;;;;;;12.30;2.35;;;;;;;12.29;95.59;99570.13;4934631;29;20052;-65
2023/10/31 00:12:32;;;;;;;10.27;2.10;;;;;;;12.27;95.83;99573.22;4932740;29;20056;-66
2023/10/31 00:14:59;;;;;;;14.63;2.47;;;;;;;12.13;96.70;99572.81;4933236;29;20063;-66
2023/10/31 00:17:26;;;;;;;10.05;1.80;;;;;;;12.19;96.68;99571.44;4934119;29;20082;-65
2023/10/31 00:19:54;;;;;;;6.60;1.52;;;;;;;12.23;96.97;99569.56;4933621;29;20526;-65
2023/10/31 00:22:21;;;;;;;5.32;1.67;;;;;;;12.15;96.50;99576.03;4979231;28;20047;-65
2023/10/31 00:24:48;;;;;;;12.18;1.75;;;;;;;12.26;96.75;99570.81;4939942;28;20066;-64
2023/10/31 00:27:16;;;;;;;8.23;1.65;;;;;;;12.09;96.81;99574.69;4950849;28;20063;-65
2023/10/31 00:29:43;;;;;;;8.63;1.80;;;;;;;12.08;96.90;99575.84;4933313;29;20052;-65
2023/10/31 00:32:10;;;;;;;10.40;1.80;;;;;;;12.12;97.06;99582.25;4937272;29;20047;-65
2023/10/31 00:34:37;;;;;;;9.60;1.50;;;;;;;12.00;97.02;99576.78;4933484;29;20067;-66
2023/10/31 00:37:05;;;;;;;9.52;1.80;;;;;;;12.03;97.48;99576.09;4953386;28;20058;-65
2023/10/31 00:39:33;;;;;;;11.27;2.90;;;;;;;11.95;97.39;99584.50;4952233;28;20606;-65
2023/10/31 00:42:01;;;;;;;11.60;2.42;;;;;;;11.89;97.85;99575.66;4936992;29;20473;-65
2023/10/31 00:44:28;;;;;;;12.65;2.30;;;;;;;11.92;97.85;99572.22;4937409;29;20051;-65
2023/10/31 00:46:55;;;;;;;7.90;2.05;;;;;;;11.68;98.90;99579.75;4936638;29;20055;-64
2023/10/31 00:49:23;;;;;;;10.50;1.90;;;;;;;11.72;98.84;99577.91;4952037;29;20047;-64
2023/10/31 00:51:51;;;;;;;16.30;2.20;;;;;;;11.74;99.38;99581.13;4939328;29;20047;-64
2023/10/31 00:54:18;;;;;;;12.57;2.08;;;;;;;11.66;99.24;99582.88;4937853;29;20066;-64
2023/10/31 00:56:46;;;;;;;9.95;1.58;;;;;;;11.32;100.00;99595.19;4937967;29;20063;-64
2023/10/31 00:59:13;;;;;;;9.38;2.03;;;;;;;11.43;100.00;99590.00;4952097;29;20051;-64
2023/10/31 01:01:40;;;;;;;11.38;1.95;;;;;;;11.28;100.00;99596.19;4967637;28;20435;-65
2023/10/31 01:04:08;;;;;;;14.15;3.00;;;;;;;11.25;100.00;99600.47;4967788;28;20436;-65
2023/10/31 01:06:42;;;;;;;8.55;2.40;;;;;;;11.28;100.00;99599.75;4937426;29;20052;-65
2023/10/31 01:09:10;;;;;;;13.40;2.63;;;;;;;11.05;100.00;99609.63;4935791;29;20066;-65
2023/10/31 01:11:37;;;;;;;12.95;2.28;;;;;;;10.95;100.00;99603.75;4951845;28;20099;-65
2023/10/31 01:14:04;;;;;;;10.95;2.30;;;;;;;10.97;100.00;99604.22;4967637;28;20064;-65
2023/10/31 01:16:32;;;;;;;11.55;2.30;;;;;;;11.06;100.00;99605.75;4936846;29;20159;-64
2023/10/31 01:18:59;;;;;;;15.48;3.00;;;;;;;11.18;100.00;99607.69;4952072;29;20062;-65
2023/10/31 01:21:27;;;;;;;6.35;2.13;;;;;;;11.09;100.00;99599.53;4974128;28;20048;-65
2023/10/31 01:23:55;;;;;;;10.02;2.05;;;;;;;11.05;100.00;99601.34;4970861;28;20146;-64
2023/10/31 01:26:23;;;;;;;11.85;2.30;;;;;;;11.13;100.00;99605.16;4970240;28;20051;-65
2023/10/31 01:28:51;;;;;;;10.75;2.28;;;;;;;11.01;100.00;99603.22;4945476;29;20059;-64
2023/10/31 01:31:18;;;;;;;11.52;2.08;;;;;;;11.09;100.00;99599.53;4936745;29;20507;-65
2023/10/31 01:33:46;;;;;;;10.80;2.40;;;;;;;11.10;100.00;99606.66;4951129;29;20044;-64
2023/10/31 01:36:14;;;;;;;10.10;2.38;;;;;;;11.07;100.00;99607.34;4969438;28;20067;-64
2023/10/31 01:38:41;;;;;;;10.32;2.00;;;;;;;11.09;100.00;99613.31;4936305;29;20086;-64
2023/10/31 01:41:09;;;;;;;8.48;2.17;;;;;;;10.90;100.00;99606.75;4927202;29;20067;-65
2023/10/31 01:43:37;;;;;;;9.98;2.80;;;;;;;10.93;100.00;99603.31;4949689;29;20059;-66
2023/10/31 01:46:05;;;;;;;13.85;2.50;;;;;;;10.96;100.00;99614.47;4966542;28;20060;-65
2023/10/31 01:48:33;;;;;;;9.15;2.13;;;;;;;10.96;100.00;99605.38;4950477;29;20055;-64
2023/10/31 01:51:03;;;;;;;9.52;2.78;;;;;;;11.03;100.00;99614.69;4950373;29;20536;-65
2023/10/31 01:53:33;;;;;;;12.68;2.60;;;;;;;11.15;100.00;99625.72;4965724;28;20070;-64
2023/10/31 01:56:03;;;;;;;9.13;3.15;;;;;;;11.25;100.00;99619.75;4965123;28;20048;-64
2023/10/31 01:58:34;;;;;;;9.77;3.53;;;;;;;11.25;100.00;99617.00;4981828;28;20085;-64
2023/10/31 02:01:01;;;;;;;;;;;;;;;10.95;100.00;99628.56;4966831;28;20052;-65
2023/10/31 02:03:28;;;;;;;14.15;3.47;;;;;;;11.03;100.00;99630.41;4950350;28;19922;-64
2023/10/31 02:05:57;;;;;;;8.82;3.08;;;;;;;10.96;100.00;99628.25;4936460;29;20423;-65
2023/10/31 02:08:25;;;;;;;10.25;3.30;;;;;;;10.92;100.00;99635.56;4950145;29;20058;-65
2023/10/31 02:10:52;;;;;;;16.35;3.08;;;;;;;10.96;100.00;99631.00;4950649;29;20055;-65
2023/10/31 02:13:20;;;;;;;14.43;3.95;;;;;;;11.21;100.00;99626.28;4950231;29;20158;-64
2023/10/31 02:15:47;;;;;;;11.30;3.65;;;;;;;11.11;100.00;99638.56;4936070;29;20059;-65
2023/10/31 02:18:15;;;;;;;10.02;3.70;;;;;;;11.17;100.00;99639.97;4936333;29;20054;-64
2023/10/31 02:20:43;;;;;;;13.65;3.42;;;;;;;11.26;100.00;99640.66;4968137;28;20063;-64
2023/10/31 02:23:10;;;;;;;12.20;3.83;;;;;;;11.31;100.00;99645.94;4975867;28;20055;-63
2023/10/31 02:25:37;;;;;;;12.50;3.67;;;;;;;11.16;100.00;99641.09;4935427;29;20047;-63
2023/10/31 02:28:04;;;;;;;14.07;3.53;;;;;;;11.11;100.00;99640.53;4966218;28;20047;-63
2023/10/31 02:30:32;;;;;;;9.80;3.47;;;;;;;11.25;100.00;99641.81;4935329;29;20059;-63
2023/10/31 02:33:01;;;;;;;10.43;2.90;;;;;;;11.41;100.00;99641.09;4935686;29;20047;-61
2023/10/31 02:35:28;;;;;;;12.18;3.08;;;;;;;11.38;100.00;99641.81;4966588;28;20414;-63
2023/10/31 02:37:56;;;;;;;11.07;3.13;;;;;;;11.41;100.00;99635.59;4935243;29;20043;-63
2023/10/31 02:40:23;;;;;;;10.75;3.20;;;;;;;11.43;100.00;99644.34;4950113;28;20082;-64
2023/10/31 02:42:50;;;;;;;12.15;3.85;;;;;;;11.47;100.00;99648.00;4953566;29;20051;-64
2023/10/31 02:45:18;;;;;;;12.35;4.03;;;;;;;11.65;100.00;99647.44;4953807;29;20058;-64
2023/10/31 02:47:46;;;;;;;11.55;3.10;;;;;;;11.66;100.00;99648.25;4954717;29;20406;-64
2023/10/31 02:50:13;;;;;;;13.38;3.70;;;;;;;11.53;100.00;99650.19;4936382;29;20055;-63
2023/10/31 02:52:40;;;;;;;8.57;3.20;;;;;;;11.48;100.00;99646.84;4981792;28;20058;-63
2023/10/31 02:55:08;;;;;;;12.27;3.45;;;;;;;11.37;100.00;99645.72;4953309;29;20143;-64
2023/10/31 02:57:36;;;;;;;11.85;3.30;;;;;;;11.44;100.00;99643.97;4968860;28;20059;-63
2023/10/31 03:00:04;;;;;;;11.80;3.17;;;;;;;11.49;100.00;99645.72;4954517;29;20051;-63
2023/10/31 03:02:31;;;;;;;13.95;3.38;;;;;;;11.43;100.00;99641.56;4938157;29;20579;-63
2023/10/31 03:04:58;;;;;;;13.60;3.45;;;;;;;11.50;100.00;99639.84;4935083;29;20054;-63
2023/10/31 03:07:26;;;;;;;10.98;3.55;;;;;;;11.59;100.00;99648.00;4950105;29;20058;-63
2023/10/31 03:09:54;;;;;;;15.57;4.03;;;;;;;11.48;100.00;99647.66;4935062;29;20047;-63
2023/10/31 03:12:21;;;;;;;13.52;4.25;;;;;;;11.62;100.00;99645.38;4933902;29;20502;-63
2023/10/31 03:14:49;;;;;;;15.50;4.10;;;;;;;11.68;100.00;99645.97;4933503;29;20064;-62
2023/10/31 03:17:16;;;;;;;15.70;3.85;;;;;;;11.84;100.00;99649.59;4965698;28;20415;-63
2023/10/31 03:19:44;;;;;;;17.98;3.58;;;;;;;11.90;100.00;99659.25;4949424;29;20543;-63
2023/10/31 03:22:11;;;;;;;14.15;3.63;;;;;;;11.79;100.00;99667.22;4942233;29;20668;-63
2023/10/31 03:24:38;;;;;;;11.98;3.85;;;;;;;11.89;100.00;99668.69;4965296;28;20063;-64
2023/10/31 03:27:06;;;;;;;12.63;4.15;;;;;;;11.64;100.00;99672.59;4934997;29;20695;-64
2023/10/31 03:29:33;;;;;;;11.98;3.60;;;;;;;11.52;100.00;99675.34;4934324;29;20055;-63
2023/10/31 03:32:00;;;;;;;16.73;4.07;;;;;;;11.52;100.00;99675.34;4934876;29;20057;-64
2023/10/31 03:34:27;;;;;;;12.95;3.30;;;;;;;11.84;100.00;99674.44;4965433;28;20043;-63
2023/10/31 03:36:56;;;;;;;15.98;3.50;;;;;;;11.67;100.00;99672.75;4939980;29;20058;-63
2023/10/31 03:39:23;;;;;;;11.30;3.40;;;;;;;11.61;100.00;99679.59;4932963;29;20515;-64
2023/10/31 03:41:51;;;;;;;10.65;3.70;;;;;;;11.62;100.00;99675.69;4933147;29;20056;-64
2023/10/31 03:44:18;;;;;;;11.70;3.67;;;;;;;11.47;100.00;99667.31;4933144;29;20063;-62
2023/10/31 03:46:45;;;;;;;12.82;3.70;;;;;;;11.59;100.00;99672.84;4959636;28;20056;-63
2023/10/31 03:49:12;;;;;;;16.05;4.30;;;;;;;11.71;100.00;99675.59;4933978;29;20039;-64
2023/10/31 03:51:40;;;;;;;13.13;4.30;;;;;;;11.73;100.00;99681.59;4936437;29;20644;-63
2023/10/31 03:54:07;;;;;;;11.95;3.95;;;;;;;11.70;100.00;99668.50;4933454;29;20817;-63
2023/10/31 03:56:42;;;;;;;14.55;3.95;;;;;;;11.76;100.00;99673.44;4949352;29;20047;-63
2023/10/31 03:59:09;;;;;;;13.00;5.00;;;;;;;11.68;100.00;99679.06;4933640;29;20132;-64
2023/10/31 04:01:37;;;;;;;13.88;4.28;;;;;;;11.63;100.00;99676.50;4933786;29;20058;-63
2023/10/31 04:04:04;;;;;;;11.75;4.07;;;;;;;11.62;100.00;99681.22;4967384;28;20058;-63
2023/10/31 04:06:32;;;;;;;11.60;4.57;;;;;;;11.72;100.00;99691.81;4957411;29;20047;-63
2023/10/31 04:08:59;;;;;;;13.30;4.53;;;;;;;11.81;100.00;99694.44;4941829;29;20076;-63
2023/10/31 04:11:26;;;;;;;15.85;4.55;;;;;;;11.93;100.00;99689.72;4938428;29;20055;-63
2023/10/31 04:13:53;;;;;;;14.27;3.90;;;;;;;11.79;100.00;99694.78;4937274;29;20059;-63
2023/10/31 04:16:20;;;;;;;11.55;3.85;;;;;;;11.85;100.00;99695.38;4936934;29;20078;-63
2023/10/31 04:18:48;;;;;;;11.80;3.55;;;;;;;12.06;100.00;99696.03;4937461;29;20058;-65
2023/10/31 04:21:15;;;;;;;10.45;4.07;;;;;;;11.95;100.00;99700.41;4958565;28;20054;-64
2023/10/31 04:23:42;;;;;;;14.90;4.07;;;;;;;11.84;100.00;99705.59;4944780;28;20056;-64
2023/10/31 04:26:09;;;;;;;8.80;3.75;;;;;;;11.85;100.00;99711.94;4968366;28;20125;-63
2023/10/31 04:28:37;;;;;;;12.70;4.30;;;;;;;11.91;100.00;99716.03;4937477;29;20060;-64
2023/10/31 04:31:04;;;;;;;11.85;4.18;;;;;;;11.93;100.00;99711.81;4967947;28;20052;-64
2023/10/31 04:33:31;;;;;;;14.25;4.20;;;;;;;11.95;100.00;99708.69;4937474;29;20066;-63
2023/10/31 04:36:00;;;;;;;15.27;4.32;;;;;;;11.84;100.00;99711.13;4937922;29;20051;-65
2023/10/31 04:38:28;;;;;;;10.20;4.05;;;;;;;11.95;100.00;99703.16;4936848;29;20055;-64
2023/10/31 04:40:55;;;;;;;13.65;4.25;;;;;;;11.97;100.00;99711.91;4937307;29;20048;-65
2023/10/31 04:43:22;;;;;;;8.57;3.75;;;;;;;11.96;100.00;99721.34;4937638;29;20056;-64
2023/10/31 04:45:49;;;;;;;16.38;4.10;;;;;;;11.72;100.00;99719.41;4968478;28;20048;-63
2023/10/31 04:48:16;;;;;;;14.15;4.10;;;;;;;11.77;100.00;99723.91;4935975;29;20047;-64
2023/10/31 04:50:44;;;;;;;11.93;4.50;;;;;;;11.89;100.00;99721.91;4945285;29;20075;-65
2023/10/31 04:53:11;;;;;;;12.65;3.85;;;;;;;11.92;100.00;99718.47;4932051;29;20056;-63
2023/10/31 04:55:40;;;;;;;15.77;3.95;;;;;;;12.00;100.00;99719.50;4933947;29;20526;-63
2023/10/31 04:58:07;;;;;;;12.98;4.45;;;;;;;11.99;100.00;99728.94;4935657;29;20056;-64
2023/10/31 05:00:35;;;;;;;11.80;4.00;;;;;;;11.94;100.00;99729.94;4940962;29;20844;-64
2023/10/31 05:03:02;;;;;;;9.63;4.13;;;;;;;11.91;100.00;99730.66;4944747;29;20664;-65
2023/10/31 05:05:30;;;;;;;10.82;3.88;;;;;;;11.95;100.00;99719.72;4948149;29;20502;-65
2023/10/31 05:07:58;;;;;;;10.57;3.78;;;;;;;12.08;100.00;99726.84;4938417;29;20079;-65
2023/10/31 05:10:25;;;;;;;16.48;4.60;;;;;;;12.12;100.00;99731.31;4936238;29;20063;-63
2023/10/31 05:12:53;;;;;;;15.73;5.00;;;;;;;12.08;100.00;99733.16;4936095;29;20059;-64
2023/10/31 05:15:20;;;;;;;10.05;3.80;;;;;;;12.07;100.00;99728.81;4935809;29;20039;-65
2023/10/31 05:17:48;;;;;;;9.82;4.15;;;;;;;12.13;100.00;99732.91;4937505;29;20596;-64
2023/10/31 05:20:15;;;;;;;14.00;4.43;;;;;;;12.26;100.00;99729.00;4936736;29;20078;-64
2023/10/31 05:22:42;;;;;;;13.85;4.60;;;;;;;12.25;100.00;99726.59;4937060;29;20058;-64
2023/10/31 05:25:10;;;;;;;12.98;4.53;;;;;;;12.22;100.00;99733.59;4966585;28;20047;-64
2023/10/31 05:27:37;;;;;;;12.65;4.72;;;;;;;12.33;100.00;99728.41;4936775;29;20063;-63
2023/10/31 05:30:05;;;;;;;15.38;4.70;;;;;;;12.35;100.00;99737.97;4936248;28;20072;-64
2023/10/31 05:32:32;;;;;;;11.75;4.15;;;;;;;12.41;100.00;99736.53;4942880;29;20051;-63
2023/10/31 05:35:00;;;;;;;12.20;4.65;;;;;;;12.49;100.00;99745.84;4940725;28;20047;-63
2023/10/31 05:37:27;;;;;;;13.00;4.18;;;;;;;12.48;100.00;99751.72;4937272;29;20052;-63
2023/10/31 05:39:55;;;;;;;11.98;4.20;;;;;;;12.50;100.00;99755.75;4936038;29;20511;-63
2023/10/31 05:42:25;;;;;;;11.77;4.10;;;;;;;12.35;100.00;99762.81;4935951;29;20055;-63
2023/10/31 05:44:52;;;;;;;;;;;;;;;12.41;100.00;99755.88;4936907;29;20055;-62
2023/10/31 05:47:19;;;;;;;14.27;4.80;;;;;;;12.46;100.00;99760.38;4936436;29;19937;-63
2023/10/31 05:49:46;;;;;;;10.88;4.68;;;;;;;12.45;100.00;99753.22;4935242;29;20059;-65
2023/10/31 05:52:13;;;;;;;16.83;4.43;;;;;;;12.38;100.00;99753.00;4948927;29;20047;-66
2023/10/31 05:54:41;;;;;;;11.40;4.15;;;;;;;12.32;100.00;99759.94;4945996;28;20056;-65
2023/10/31 05:57:08;;;;;;;15.85;4.35;;;;;;;12.26;100.00;99759.38;4936544;29;20053;-65
2023/10/31 05:59:35;;;;;;;13.52;4.18;;;;;;;12.21;100.00;99759.63;4947161;29;20645;-66
2023/10/31 06:02:02;;;;;;;17.05;4.35;;;;;;;12.26;100.00;99759.38;4933934;29;20055;-64
2023/10/31 06:04:30;;;;;;;11.88;3.78;;;;;;;12.43;100.00;99755.53;4966533;28;20058;-65
2023/10/31 06:06:57;;;;;;;13.00;3.30;;;;;;;12.56;100.00;99764.59;4935508;29;20055;-66
2023/10/31 06:09:24;;;;;;;14.95;4.35;;;;;;;12.52;100.00;99763.72;4935654;29;20056;-65
2023/10/31 06:11:52;;;;;;;14.88;4.25;;;;;;;12.53;100.00;99759.78;4966732;28;20075;-66
2023/10/31 06:14:19;;;;;;;13.65;4.13;;;;;;;12.63;100.00;99762.84;4935531;29;20086;-65
2023/10/31 06:16:46;;;;;;;12.73;3.95;;;;;;;12.67;100.00;99761.00;4936454;29;20067;-65
2023/10/31 06:19:13;;;;;;;11.80;3.85;;;;;;;12.66;100.00;99764.13;4934585;29;20078;-65
2023/10/31 06:21:40;;;;;;;12.68;3.97;;;;;;;12.60;100.00;99769.09;4959953;28;20051;-65
2023/10/31 06:24:08;;;;;;;16.52;3.78;;;;;;;12.62;100.00;99777.03;4938079;29;20055;-65
2023/10/31 06:26:35;;;;;;;15.30;3.30;;;;;;;12.42;100.00;99779.59;4935057;29;20043;-65
2023/10/31 06:29:03;;;;;;;19.58;3.30;;;;;;;12.52;100.00;99772.78;4935196;29;20611;-65
2023/10/31 06:31:34;;;;;;;9.02;3.03;;;;;;;12.66;100.00;99775.97;4935641;29;20056;-64
2023/10/31 06:34:02;;;;;;;10.77;2.78;;;;;;;12.59;100.00;99781.28;4935380;29;20051;-64
2023/10/31 06:36:29;;;;;;;14.05;3.63;;;;;;;12.60;100.00;99782.91;4935258;29;20050;-63
2023/10/31 06:38:56;;;;;;;14.60;3.10;;;;;;;12.56;100.00;99781.97;4934793;29;20056;-63
2023/10/31 06:41:24;;;;;;;12.00;2.95;;;;;;;12.58;100.00;99793.50;4948715;29;20055;-63
2023/10/31 06:43:51;;;;;;;12.52;3.30;;;;;;;12.40;100.00;99792.13;4965130;28;20059;-66
2023/10/31 06:46:18;;;;;;;10.73;3.08;;;;;;;13.08;100.00;99790.22;4935151;29;20680;-64
2023/10/31 06:48:45;;;;;;;15.88;3.53;;;;;;;12.72;100.00;99795.88;4934742;29;20135;-64
2023/10/31 06:51:13;;;;;;;11.02;2.65;;;;;;;12.56;100.00;99801.31;4966857;28;20231;-63
2023/10/31 06:53:40;;;;;;;9.88;2.45;;;;;;;12.61;100.00;99801.06;4933729;29;20055;-64
2023/10/31 06:56:07;;;;;;;10.68;2.78;;;;;;;12.59;100.00;99788.78;4934497;29;20051;-66
2023/10/31 06:58:35;;;;;;;8.75;2.45;;;;;;;12.84;100.00;99799.41;4949246;29;20561;-66
2023/10/31 07:01:03;;;;;;;11.18;3.08;;;;;;;12.66;100.00;99794.53;4964675;28;20066;-66
2023/10/31 07:03:30;;;;;;;13.13;2.88;;;;;;;12.87;100.00;99800.66;4934762;29;20051;-67
2023/10/31 07:05:59;;;;;;;11.57;4.38;;;;;;;12.90;100.00;99806.28;4935158;29;20718;-64
2023/10/31 07:08:26;;;;;;;19.75;9.27;;;;;;;12.93;100.00;99816.66;4934993;29;20044;-65
2023/10/31 07:10:53;;;;;;;12.27;3.03;;;;;;;12.97;100.00;99811.22;4947445;29;20462;-64
2023/10/31 07:13:20;;;;;;;12.25;2.70;;;;;;;13.09;100.00;99828.56;4933946;29;20535;-64
2023/10/31 07:15:48;;;;;;;12.07;3.22;;;;;;;12.96;99.40;99818.69;4932599;29;20055;-67
2023/10/31 07:18:15;;;;;;;13.10;2.80;;;;;;;12.98;99.57;99821.94;4929675;29;20151;-66
2023/10/31 07:20:42;;;;;;;8.82;2.13;;;;;;;12.87;99.61;99820.81;4933605;29;20056;-65
2023/10/31 07:23:09;;;;;;;9.70;2.40;;;;;;;13.03;99.49;99826.41;4934197;29;20050;-63
2023/10/31 07:25:37;;;;;;;9.30;2.22;;;;;;;13.09;98.98;99823.06;4964818;28;20050;-65
2023/10/31 07:28:04;;;;;;;8.10;2.30;;;;;;;12.92;99.64;99826.09;4933795;29;20063;-65
2023/10/31 07:30:31;;;;;;;10.50;2.30;;;;;;;13.20;100.00;99829.69;4933306;29;20526;-66
2023/10/31 07:32:58;;;;;;;15.18;3.45;;;;;;;13.15;99.15;99838.25;4934086;29;20051;-65
2023/10/31 07:35:26;;;;;;;12.23;3.33;;;;;;;13.14;98.75;99844.13;4934041;29;20509;-64
2023/10/31 07:37:53;;;;;;;22.73;9.55;;;;;;;13.52;100.00;99838.88;4929880;29;20055;-70
2023/10/31 07:40:20;;;;;;;11.85;2.80;;;;;;;13.46;100.00;99848.59;4925820;29;20055;-65
2023/10/31 07:42:47;;;;;;;17.90;7.28;;;;;;;13.86;100.00;99842.94;4930904;29;20067;-62
2023/10/31 07:45:14;;;;;;;9.93;2.63;;;;;;;13.70;97.71;99855.97;4934866;29;20567;-62
2023/10/31 07:47:42;;;;;;;11.10;2.55;;;;;;;13.51;96.35;99864.94;4962184;28;20067;-63
2023/10/31 07:50:09;;;;;;;10.60;2.70;;;;;;;13.54;97.88;99855.94;4984284;28;20051;-63
2023/10/31 07:52:37;;;;;;;14.45;3.53;;;;;;;13.86;98.60;99863.13;4932390;29;20051;-62
2023/10/31 07:55:14;;;;;;;9.30;2.67;;;;;;;14.21;97.12;99871.56;4933194;29;20423;-64
2023/10/31 07:57:42;;;;;;;11.60;3.45;;;;;;;14.28;94.12;99863.41;4947126;28;20052;-61
2023/10/31 08:00:11;;;;;;;8.77;2.78;;;;;;;14.20;92.79;99864.38;4965372;28;20055;-62
2023/10/31 08:02:40;;;;;;;10.73;2.22;;;;;;;14.05;92.09;99867.97;4930812;29;20503;-63
2023/10/31 08:05:10;;;;;;;16.35;2.33;;;;;;;13.74;92.48;99874.25;4930960;29;20051;-62
2023/10/31 08:07:37;;;;;;;15.57;2.37;;;;;;;13.62;93.56;99879.06;4930096;29;20052;-64
2023/10/31 08:10:05;;;;;;;14.35;2.78;;;;;;;13.67;94.48;99878.81;4937896;29;20298;-61
2023/10/31 08:12:32;;;;;;;10.05;2.13;;;;;;;13.61;94.77;99881.03;4931707;29;20240;-62
2023/10/31 08:15:00;;;;;;;10.30;2.67;;;;;;;13.73;93.96;99885.69;4945806;28;20067;-63
2023/10/31 08:17:27;;;;;;;11.02;2.35;;;;;;;13.77;94.14;99892.13;4964291;28;20063;-62
2023/10/31 08:19:55;;;;;;;9.30;2.30;;;;;;;13.74;93.65;99885.34;4963039;28;20058;-62
2023/10/31 08:22:22;;;;;;;12.85;2.42;;;;;;;13.65;94.33;99901.28;4968263;28;20450;-63
2023/10/31 08:24:50;;;;;;;13.13;2.60;;;;;;;13.62;94.16;99895.66;4950241;28;20131;-62
2023/10/31 08:27:17;;;;;;;9.38;2.55;;;;;;;13.76;94.11;99894.09;4933703;29;20435;-64
2023/10/31 08:29:45;;;;;;;7.60;2.00;;;;;;;13.66;93.88;99894.59;4945870;28;20052;-63
2023/10/31 08:32:16;;;;;;;12.98;3.00;;;;;;;13.76;94.40;99896.03;4963007;28;20076;-63
2023/10/31 08:34:43;;;;;;;9.18;2.00;;;;;;;13.86;93.53;99898.31;4933617;29;20066;-62
2023/10/31 08:37:10;;;;;;;11.43;2.22;;;;;;;13.86;93.49;99909.38;4966431;28;20051;-62
2023/10/31 08:39:38;;;;;;;15.00;2.70;;;;;;;14.10;94.13;99912.00;4931292;29;20074;-63
2023/10/31 08:42:05;;;;;;;9.65;2.42;;;;;;;14.04;92.73;99903.16;4934103;29;20537;-63
2023/10/31 08:44:33;;;;;;;11.45;2.30;;;;;;;14.03;93.13;99914.59;4935944;29;20047;-63
2023/10/31 08:47:01;;;;;;;9.15;2.42;;;;;;;13.66;93.81;99925.06;4932429;29;20054;-62
2023/10/31 08:49:28;;;;;;;12.18;5.22;;;;;;;13.86;94.56;99929.56;4941866;29;20051;-65
2023/10/31 08:51:55;;;;;;;11.82;3.88;;;;;;;14.15;93.85;99922.81;4938643;29;20050;-67
2023/10/31 08:54:22;;;;;;;8.82;2.58;;;;;;;14.06;93.72;99925.75;4941699;29;20043;-63
2023/10/31 08:56:50;;;;;;;10.43;2.25;;;;;;;14.31;94.61;99927.22;4930520;29;20048;-61
2023/10/31 08:59:17;;;;;;;9.75;2.63;;;;;;;14.26;93.11;99923.94;4935218;29;20056;-62
2023/10/31 09:01:44;;;;;;;10.85;1.90;;;;;;;14.24;94.99;99932.53;4940464;29;20082;-63
2023/10/31 09:04:11;;;;;;;10.32;2.08;;;;;;;14.11;94.47;99933.00;4935798;29;20062;-63
2023/10/31 09:06:39;;;;;;;9.27;2.30;;;;;;;14.38;95.55;99946.00;4936703;29;20054;-64
2023/10/31 09:09:06;;;;;;;10.35;2.85;;;;;;;14.62;95.37;99948.59;4965449;28;20059;-62
2023/10/31 09:11:33;;;;;;;9.88;2.70;;;;;;;14.25;92.10;99947.22;4967894;28;20071;-64
2023/10/31 09:14:00;;;;;;;11.25;2.28;;;;;;;14.38;95.41;99940.47;4936320;29;20063;-63
2023/10/31 09:16:28;;;;;;;9.18;2.08;;;;;;;14.54;95.62;99949.56;4943238;29;20039;-64
2023/10/31 09:18:55;;;;;;;8.85;2.22;;;;;;;14.38;94.45;99957.09;4937072;29;20487;-63
2023/10/31 09:21:22;;;;;;;10.90;2.63;;;;;;;14.32;94.43;99966.81;4967605;28;20100;-63
2023/10/31 09:23:49;;;;;;;11.07;2.35;;;;;;;14.14;96.63;99962.75;4970086;28;20068;-62
2023/10/31 09:26:17;;;;;;;13.85;2.30;;;;;;;14.28;95.70;99963.13;4967021;28;20419;-62
2023/10/31 09:28:51;;;;;;;12.05;2.47;;;;;;;13.80;95.99;99977.22;4936390;29;20055;-62
2023/10/31 09:31:19;;;;;;;12.50;2.20;;;;;;;13.77;98.87;99981.53;4937520;29;20529;-64
2023/10/31 09:33:49;;;;;;;10.82;2.45;;;;;;;13.67;97.29;99989.50;4954392;28;20058;-62
2023/10/31 09:36:17;;;;;;;13.68;2.72;;;;;;;13.52;98.36;99989.09;4931841;29;20047;-62
2023/10/31 09:38:46;;;;;;;9.05;2.42;;;;;;;13.64;100.00;99995.72;4968158;28;20043;-63
2023/10/31 09:41:14;;;;;;;10.98;2.53;;;;;;;13.99;100.00;99994.78;4932960;29;20068;-64
2023/10/31 09:43:42;;;;;;;10.38;2.70;;;;;;;13.94;99.52;100005.31;4939215;29;20059;-64
2023/10/31 09:46:10;;;;;;;13.07;2.50;;;;;;;13.41;98.20;99998.22;4934213;29;20092;-63
2023/10/31 09:48:37;;;;;;;9.05;2.60;;;;;;;13.42;100.00;100006.16;4952931;28;20051;-63
2023/10/31 09:51:05;;;;;;;10.82;2.33;;;;;;;13.95;100.00;100004.94;4933793;29;20522;-63
2023/10/31 09:53:33;;;;;;;8.82;2.85;;;;;;;14.21;99.76;100010.81;4935777;29;20172;-63
2023/10/31 09:56:02;;;;;;;13.65;2.85;;;;;;;14.35;99.30;100013.19;4934547;29;20056;-63
2023/10/31 09:58:29;;;;;;;9.55;2.35;;;;;;;14.09;95.83;100012.84;4938076;29;20051;-64
2023/10/31 10:00:57;;;;;;;8.85;2.20;;;;;;;14.25;95.27;100008.16;4935187;29;20048;-63
2023/10/31 10:03:24;;;;;;;9.95;2.30;;;;;;;14.14;94.75;100018.94;4939020;29;20707;-62
2023/10/31 10:05:52;;;;;;;8.85;2.58;;;;;;;14.41;95.47;100023.69;4966406;28;20059;-62
2023/10/31 10:08:19;;;;;;;10.90;2.75;;;;;;;14.35;92.72;100021.50;4931242;29;20056;-62
2023/10/31 10:10:47;;;;;;;8.30;2.28;;;;;;;14.61;97.34;100027.34;4933573;29;20052;-62
2023/10/31 10:13:18;;;;;;;5.95;1.77;;;;;;;15.01;97.59;100032.72;4930049;29;20629;-62
2023/10/31 10:15:52;;;;;;;18.83;2.25;;;;;;;14.56;91.14;100020.13;4972959;28;20062;-61
2023/10/31 10:18:29;;;;;;;8.23;2.75;;;;;;;14.91;93.65;100025.75;4929442;29;20051;-61
2023/10/31 10:21:04;;;;;;;9.63;2.40;;;;;;;14.89;96.09;100022.50;4932947;29;20055;-62
2023/10/31 10:23:32;;;;;;;10.82;2.22;;;;;;;14.65;90.29;100025.47;4939107;29;20054;-62
2023/10/31 10:26:03;;;;;;;9.90;2.17;;;;;;;14.84;94.69;100024.75;4933522;29;20078;-62
2023/10/31 10:28:31;;;;;;;8.05;1.60;;;;;;;14.53;89.82;100020.84;4951461;28;20039;-62
2023/10/31 10:30:58;;;;;;;8.10;1.90;;;;;;;14.46;88.04;100023.41;4942252;29;20059;-62
2023/10/31 10:33:25;;;;;;;8.13;2.30;;;;;;;14.87;96.58;100022.06;4937628;29;20047;-62
2023/10/31 10:35:55;;;;;;;8.35;2.50;;;;;;;14.96;94.11;100038.56;4952405;28;20047;-62
2023/10/31 10:38:23;;;;;;;7.32;2.20;;;;;;;15.17;94.70;100042.63;4966637;28;20490;-62
2023/10/31 10:40:50;;;;;;;9.65;2.58;;;;;;;15.47;94.80;100045.72;4966083;28;20066;-63
2023/10/31 10:43:25;;;;;;;6.32;1.83;;;;;;;15.42;90.07;100049.59;4933061;28;20059;-64
2023/10/31 10:45:59;;;;;;;5.13;1.70;;;;;;;15.75;90.06;100055.50;4933356;29;20451;-61
2023/10/31 10:48:27;;;;;;;6.03;1.85;;;;;;;15.61;89.77;100048.81;4931859;29;20044;-66
2023/10/31 10:51:15;;;;;;;6.57;1.83;;;;;;;15.58;89.64;100055.91;4932011;29;20039;-61
2023/10/31 10:53:52;;;;;;;8.85;1.90;;;;;;;15.27;86.48;100058.72;4943924;28;20055;-62
2023/10/31 10:56:39;;;;;;;8.43;2.13;;;;;;;15.12;85.72;100067.88;4964402;28;20059;-63
2023/10/31 10:59:20;;;;;;;11.10;2.47;;;;;;;15.10;87.76;100069.41;4950545;28;20071;-63
2023/10/31 11:01:48;;;;;;;11.13;3.00;;;;;;;15.25;86.30;100071.34;4934678;28;20052;-63
2023/10/31 11:04:16;;;;;;;7.28;1.98;;;;;;;15.47;90.73;100068.75;4961389;28;20070;-61
2023/10/31 11:06:45;;;;;;;9.40;2.47;;;;;;;15.74;91.28;100067.75;4965850;28;20089;-62
2023/10/31 11:09:13;;;;;;;9.80;2.15;;;;;;;15.73;89.16;100079.22;4931048;29;20055;-62
2023/10/31 11:11:41;;;;;;;18.40;2.38;;;;;;;15.92;87.92;100075.69;4956124;28;20440;-64
2023/10/31 11:14:08;;;;;;;8.00;2.58;;;;;;;15.90;86.63;100073.25;4934067;29;20525;-63
2023/10/31 11:16:48;;;;;;;11.55;4.55;;;;;;;15.64;82.85;100073.88;4937099;29;20055;-63
2023/10/31 11:19:21;;;;;;;9.73;3.33;;;;;;;16.19;88.46;100071.88;4935148;29;20047;-64
2023/10/31 11:21:55;;;;;;;14.90;3.78;;;;;;;16.01;87.86;100073.47;4935786;28;20067;-63
2023/10/31 11:24:23;;;;;;;10.23;2.33;;;;;;;16.35;87.63;100064.28;4967464;28;20046;-63